createdAt,value
2019-02-09T00:00:31.252Z,15.83
2019-02-09T00:02:58.667Z,13.62
2019-02-09T00:05:25.995Z,11.70
2019-02-09T00:07:53.408Z,14.93
2019-02-09T00:10:20.717Z,14.15
2019-02-09T00:12:48.053Z,10.85
2019-02-09T00:15:15.447Z,8.00
2019-02-09T00:17:42.885Z,8.48
2019-02-09T00:20:10.435Z,8.90
2019-02-09T00:22:37.914Z,11.00
2019-02-09T00:25:05.934Z,8.18
2019-02-09T00:27:33.401Z,9.40
2019-02-09T00:30:00.707Z,9.33
2019-02-09T00:32:28.271Z,8.38
2019-02-09T00:34:55.914Z,8.15
2019-02-09T00:37:23.240Z,9.63
2019-02-09T00:39:50.647Z,8.53
2019-02-09T00:42:18.344Z,8.85
2019-02-09T00:44:45.707Z,10.25
2019-02-09T00:47:13.193Z,8.55
2019-02-09T00:49:40.629Z,8.68
2019-02-09T00:52:08.106Z,8.03
2019-02-09T00:54:35.876Z,8.50
2019-02-09T00:57:03.214Z,8.25
2019-02-09T00:59:30.561Z,8.10
2019-02-09T01:01:57.994Z,8.80
2019-02-09T01:04:25.453Z,8.53
2019-02-09T01:06:52.774Z,7.80
2019-02-09T01:09:20.170Z,8.58
2019-02-09T01:11:47.471Z,9.75
2019-02-09T01:14:14.802Z,13.55
2019-02-09T01:16:42.118Z,11.10
2019-02-09T01:19:09.508Z,10.35
2019-02-09T01:21:36.843Z,10.82
2019-02-09T01:24:04.114Z,12.65
2019-02-09T01:26:31.404Z,12.40
2019-02-09T01:28:58.688Z,11.50
2019-02-09T01:31:26.094Z,10.80
2019-02-09T01:33:53.736Z,12.63
2019-02-09T01:36:21.128Z,12.58
2019-02-09T01:38:48.448Z,9.60
2019-02-09T01:41:15.767Z,12.00
2019-02-09T01:43:43.188Z,11.05
2019-02-09T01:46:10.498Z,12.00
2019-02-09T01:48:37.836Z,12.33
2019-02-09T01:51:05.141Z,12.03
2019-02-09T01:53:32.434Z,13.40
2019-02-09T01:56:00.043Z,12.40
2019-02-09T01:58:27.411Z,11.85
2019-02-09T02:00:54.717Z,8.88
2019-02-09T02:03:22.115Z,8.65
2019-02-09T02:05:49.778Z,8.13
2019-02-09T02:08:21.828Z,8.15
2019-02-09T02:10:49.150Z,7.40
2019-02-09T02:13:16.936Z,6.90
2019-02-09T02:15:44.235Z,8.33
2019-02-09T02:18:11.532Z,8.48
2019-02-09T02:20:39.027Z,11.60
2019-02-09T02:23:06.432Z,7.15
2019-02-09T02:25:33.944Z,7.03
2019-02-09T02:28:01.323Z,7.78
2019-02-09T02:30:33.705Z,8.80
2019-02-09T02:33:00.988Z,7.75
2019-02-09T02:35:28.684Z,6.85
2019-02-09T02:37:56.093Z,10.10
2019-02-09T02:40:23.462Z,6.35
2019-02-09T02:42:50.810Z,9.00
2019-02-09T02:45:18.453Z,6.97
2019-02-09T02:47:45.732Z,7.80
2019-02-09T02:50:15.088Z,9.40
2019-02-09T02:52:42.424Z,7.10
2019-02-09T02:55:11.448Z,6.83
2019-02-09T02:57:38.872Z,7.08
2019-02-09T03:00:09.738Z,9.40
2019-02-09T03:02:37.130Z,6.80
2019-02-09T03:05:05.498Z,7.03
2019-02-09T03:07:32.834Z,8.10
2019-02-09T03:10:00.189Z,6.55
2019-02-09T03:12:27.496Z,6.75
2019-02-09T03:14:54.813Z,8.30
2019-02-09T03:17:22.133Z,7.65
2019-02-09T03:19:49.455Z,7.50
2019-02-09T03:22:16.868Z,6.58
2019-02-09T03:24:44.258Z,6.62
2019-02-09T03:27:11.907Z,6.55
2019-02-09T03:29:39.639Z,9.03
2019-02-09T03:32:07.026Z,6.55
2019-02-09T03:34:34.472Z,7.95
2019-02-09T03:37:01.828Z,7.08
2019-02-09T03:39:29.118Z,7.67
2019-02-09T03:41:56.429Z,6.87
2019-02-09T03:44:23.738Z,10.10
2019-02-09T03:46:51.156Z,7.17
2019-02-09T03:49:18.553Z,7.35
2019-02-09T03:51:46.186Z,5.50
2019-02-09T03:54:13.504Z,5.70
2019-02-09T03:56:40.776Z,6.22
2019-02-09T03:59:08.186Z,7.25
2019-02-09T04:01:36.005Z,7.17
2019-02-09T04:04:03.627Z,7.87
2019-02-09T04:06:30.924Z,8.60
2019-02-09T04:08:58.341Z,8.35
2019-02-09T04:11:25.759Z,7.78
2019-02-09T04:13:53.057Z,8.63
2019-02-09T04:16:20.797Z,11.05
2019-02-09T04:18:48.093Z,9.08
2019-02-09T04:21:15.381Z,8.63
2019-02-09T04:23:42.739Z,9.45
2019-02-09T04:26:10.091Z,9.03
2019-02-09T04:28:37.422Z,10.00
2019-02-09T04:31:06.528Z,9.03
2019-02-09T04:33:34.048Z,9.20
2019-02-09T04:36:01.328Z,10.18
2019-02-09T04:38:28.628Z,9.15
2019-02-09T04:40:55.925Z,10.88
2019-02-09T04:43:23.207Z,10.88
2019-02-09T04:45:50.845Z,9.48
2019-02-09T04:48:18.112Z,10.75
2019-02-09T04:50:45.581Z,11.38
2019-02-09T04:53:12.975Z,9.13
2019-02-09T04:55:40.357Z,8.73
2019-02-09T04:58:07.642Z,9.63
2019-02-09T05:00:34.955Z,9.03
2019-02-09T05:03:02.656Z,9.23
2019-02-09T05:05:30.455Z,11.00
2019-02-09T05:07:57.870Z,9.28
2019-02-09T05:10:25.279Z,8.93
2019-02-09T05:12:53.069Z,8.45
2019-02-09T05:15:20.812Z,8.83
2019-02-09T05:17:48.313Z,8.75
2019-02-09T05:20:17.450Z,8.63
2019-02-09T05:22:44.874Z,8.48
2019-02-09T05:25:12.796Z,8.03
2019-02-09T05:27:40.064Z,12.20
2019-02-09T05:30:10.976Z,9.45
2019-02-09T05:32:38.286Z,11.22
2019-02-09T05:35:06.450Z,9.15
2019-02-09T05:37:33.764Z,10.68
2019-02-09T05:40:01.193Z,10.40
2019-02-09T05:42:28.576Z,10.23
2019-02-09T05:44:56.790Z,11.00
2019-02-09T05:47:24.168Z,9.80
2019-02-09T05:49:51.587Z,9.20
2019-02-09T05:52:19.024Z,7.47
2019-02-09T05:54:46.369Z,8.58
2019-02-09T05:57:13.781Z,7.60
2019-02-09T05:59:41.352Z,9.95
2019-02-09T06:02:08.833Z,9.05
2019-02-09T06:04:36.289Z,6.90
2019-02-09T06:07:03.725Z,7.53
2019-02-09T06:09:31.099Z,8.78
2019-02-09T06:11:58.418Z,7.70
2019-02-09T06:14:25.683Z,6.42
2019-02-09T06:16:53.110Z,6.83
2019-02-09T06:19:20.388Z,5.28
2019-02-09T06:21:47.667Z,6.00
2019-02-09T06:24:14.969Z,5.92
2019-02-09T06:26:42.368Z,4.78
2019-02-09T06:29:09.700Z,5.90
2019-02-09T06:31:40.911Z,5.78
2019-02-09T06:34:06.259Z,5.40
2019-02-09T06:36:33.567Z,6.83
2019-02-09T06:39:00.963Z,5.75
2019-02-09T06:41:28.411Z,7.45
2019-02-09T06:43:55.839Z,6.80
2019-02-09T06:46:23.224Z,6.90
2019-02-09T06:48:50.526Z,6.08
2019-02-09T06:51:17.851Z,7.60
2019-02-09T06:53:45.187Z,5.35
2019-02-09T06:56:12.565Z,4.83
2019-02-09T06:58:40.411Z,5.05
2019-02-09T07:01:07.795Z,6.15
2019-02-09T07:03:35.493Z,7.55
2019-02-09T07:06:03.473Z,5.90
2019-02-09T07:08:30.875Z,4.85
2019-02-09T07:10:58.208Z,4.35
2019-02-09T07:13:25.605Z,4.78
2019-02-09T07:15:53.065Z,5.55
2019-02-09T07:18:20.490Z,4.83
2019-02-09T07:20:47.905Z,4.70
2019-02-09T07:23:15.297Z,4.62
2019-02-09T07:25:42.657Z,6.45
2019-02-09T07:28:10.086Z,5.28
2019-02-09T07:30:37.410Z,4.50
2019-02-09T07:33:06.069Z,4.62
2019-02-09T07:35:33.537Z,6.12
2019-02-09T07:38:00.987Z,4.30
2019-02-09T07:40:28.397Z,4.35
2019-02-09T07:42:55.862Z,6.25
2019-02-09T07:45:24.659Z,4.53
2019-02-09T07:47:52.118Z,4.70
2019-02-09T07:50:20.950Z,4.90
2019-02-09T07:52:48.395Z,3.90
2019-02-09T07:55:15.956Z,4.15
2019-02-09T07:57:43.395Z,3.80
2019-02-09T08:00:14.013Z,5.03
2019-02-09T08:02:41.338Z,4.12
2019-02-09T08:05:09.647Z,4.55
2019-02-09T08:07:37.051Z,8.80
2019-02-09T08:10:06.345Z,6.92
2019-02-09T08:12:33.743Z,4.75
2019-02-09T08:15:01.121Z,8.28
2019-02-09T08:17:28.557Z,7.70
2019-02-09T08:19:55.969Z,6.47
2019-02-09T08:22:23.390Z,5.55
2019-02-09T08:24:50.720Z,5.08
2019-02-09T08:27:23.422Z,5.75
2019-02-09T08:29:47.904Z,5.05
2019-02-09T08:32:15.325Z,4.72
2019-02-09T08:34:42.772Z,5.10
2019-02-09T08:37:10.252Z,7.05
2019-02-09T08:39:37.897Z,5.72
2019-02-09T08:42:05.378Z,6.10
2019-02-09T08:44:32.829Z,5.30
2019-02-09T08:47:00.189Z,4.00
2019-02-09T08:49:27.521Z,5.12
2019-02-09T08:51:54.994Z,6.78
2019-02-09T08:54:22.412Z,6.33
2019-02-09T08:56:49.855Z,5.17
2019-02-09T08:59:17.250Z,6.37
2019-02-09T09:01:44.575Z,4.97
2019-02-09T09:04:12.047Z,4.45
2019-02-09T09:06:39.576Z,5.15
2019-02-09T09:09:09.508Z,5.15
2019-02-09T09:11:36.926Z,5.05
2019-02-09T09:14:04.370Z,5.45
2019-02-09T09:16:31.725Z,4.75
2019-02-09T09:18:59.192Z,8.30
2019-02-09T09:21:26.650Z,3.90
2019-02-09T09:23:54.206Z,3.95
2019-02-09T09:26:21.697Z,5.03
2019-02-09T09:28:49.121Z,4.30
2019-02-09T09:31:16.458Z,4.58
2019-02-09T09:33:46.855Z,6.15
2019-02-09T09:36:14.265Z,5.72
2019-02-09T09:38:41.744Z,6.55
2019-02-09T09:41:09.215Z,4.00
2019-02-09T09:43:37.216Z,5.87
2019-02-09T09:46:04.880Z,7.95
2019-02-09T09:48:32.379Z,4.15
2019-02-09T09:50:59.772Z,3.67
2019-02-09T09:53:27.319Z,6.05
2019-02-09T09:55:54.768Z,5.70
2019-02-09T09:58:22.184Z,3.33
2019-02-09T10:00:49.668Z,2.27
2019-02-09T10:03:17.455Z,4.65
2019-02-09T10:05:44.944Z,3.62
2019-02-09T10:08:12.774Z,4.35
2019-02-09T10:10:40.110Z,3.35
2019-02-09T10:13:07.572Z,3.58
2019-02-09T10:15:35.089Z,5.72
2019-02-09T10:18:02.662Z,5.08
2019-02-09T10:20:30.066Z,2.47
2019-02-09T10:22:57.536Z,4.95
2019-02-09T10:25:25.038Z,5.25
2019-02-09T10:27:53.085Z,4.85
2019-02-09T10:30:25.071Z,5.72
2019-02-09T10:32:52.808Z,5.40
2019-02-09T10:35:20.729Z,5.50
2019-02-09T10:37:48.196Z,3.35
2019-02-09T10:40:18.239Z,7.62
2019-02-09T10:42:45.648Z,3.62
2019-02-09T10:45:17.048Z,3.10
2019-02-09T10:47:44.457Z,3.20
2019-02-09T10:50:15.726Z,4.15
2019-02-09T10:52:43.170Z,2.67
2019-02-09T10:55:11.134Z,3.05
2019-02-09T10:57:38.484Z,4.62
2019-02-09T11:00:14.032Z,4.58
2019-02-09T11:02:41.428Z,5.75
2019-02-09T11:05:09.773Z,1.77
2019-02-09T11:07:37.231Z,2.65
2019-02-09T11:10:06.775Z,2.80
2019-02-09T11:12:34.289Z,2.45
2019-02-09T11:15:01.696Z,4.95
2019-02-09T11:17:29.105Z,2.33
2019-02-09T11:19:56.556Z,3.02
2019-02-09T11:22:23.973Z,9.80
2019-02-09T11:24:51.474Z,6.00
2019-02-09T11:27:18.928Z,2.98
2019-02-09T11:29:46.338Z,1.80
2019-02-09T11:32:13.675Z,4.40
2019-02-09T11:34:41.103Z,5.55
2019-02-09T11:37:08.517Z,4.55
2019-02-09T11:39:36.339Z,3.60
2019-02-09T11:42:03.970Z,4.03
2019-02-09T11:44:31.398Z,2.90
2019-02-09T11:46:58.727Z,1.50
2019-02-09T11:49:26.076Z,6.70
2019-02-09T11:51:53.429Z,6.22
2019-02-09T11:54:20.925Z,2.40
2019-02-09T11:56:48.974Z,4.00
2019-02-09T11:59:16.429Z,2.65
2019-02-09T12:01:43.894Z,3.35
2019-02-09T12:04:11.233Z,6.53
2019-02-09T12:06:38.728Z,3.87
2019-02-09T12:09:08.278Z,1.22
2019-02-09T12:11:35.720Z,1.50
2019-02-09T12:14:03.438Z,6.60
2019-02-09T12:16:30.909Z,1.62
2019-02-09T12:18:58.646Z,1.87
2019-02-09T12:21:26.109Z,2.00
2019-02-09T12:23:53.500Z,2.50
2019-02-09T12:26:20.989Z,2.83
2019-02-09T12:28:48.388Z,3.27
2019-02-09T12:31:15.838Z,3.27
2019-02-09T12:33:43.702Z,1.67
2019-02-09T12:36:12.225Z,2.30
2019-02-09T12:38:39.665Z,2.47
2019-02-09T12:41:09.478Z,1.72
2019-02-09T12:43:36.907Z,2.65
2019-02-09T12:46:04.369Z,3.10
2019-02-09T12:48:31.842Z,3.08
2019-02-09T12:50:59.336Z,3.55
2019-02-09T12:53:26.754Z,3.62
2019-02-09T12:55:54.233Z,2.55
2019-02-09T12:58:21.677Z,3.00
2019-02-09T13:00:49.205Z,2.55
2019-02-09T13:03:19.868Z,1.92
2019-02-09T13:05:47.577Z,2.77
2019-02-09T13:08:16.573Z,3.47
2019-02-09T13:10:44.258Z,1.77
2019-02-09T13:13:11.939Z,2.42
2019-02-09T13:15:39.639Z,2.00
2019-02-09T13:18:07.309Z,4.97
2019-02-09T13:20:34.983Z,3.37
2019-02-09T13:23:03.673Z,2.15
2019-02-09T13:25:31.618Z,6.90
2019-02-09T13:27:59.321Z,3.52
2019-02-09T13:30:29.246Z,3.27
2019-02-09T13:32:57.637Z,2.98
2019-02-09T13:35:25.164Z,1.70
2019-02-09T13:37:52.720Z,5.45
2019-02-09T13:40:20.364Z,7.53
2019-02-09T13:42:47.805Z,3.02
2019-02-09T13:45:23.907Z,1.65
2019-02-09T13:47:51.306Z,3.77
2019-02-09T13:50:18.825Z,2.58
2019-02-09T13:52:46.261Z,3.58
2019-02-09T13:55:13.877Z,2.77
2019-02-09T13:57:41.644Z,2.10
2019-02-09T14:00:12.664Z,4.03
2019-02-09T14:02:40.038Z,2.83
2019-02-09T14:05:08.143Z,2.47
2019-02-09T14:07:35.521Z,5.62
2019-02-09T14:10:04.156Z,2.17
2019-02-09T14:12:31.696Z,2.77
2019-02-09T14:14:59.149Z,2.17
2019-02-09T14:17:26.539Z,2.50
2019-02-09T14:19:53.910Z,3.52
2019-02-09T14:22:21.371Z,1.20
2019-02-09T14:24:48.868Z,1.85
2019-02-09T14:27:18.108Z,1.90
2019-02-09T14:29:45.543Z,1.32
2019-02-09T14:32:13.562Z,3.58
2019-02-09T14:34:41.009Z,1.60
2019-02-09T14:37:08.408Z,2.10
2019-02-09T14:39:35.886Z,2.15
2019-02-09T14:42:03.598Z,3.15
2019-02-09T14:44:31.112Z,5.10
2019-02-09T14:46:58.665Z,3.42
2019-02-09T14:49:26.169Z,2.02
2019-02-09T14:51:53.586Z,3.95
2019-02-09T14:54:21.069Z,3.77
2019-02-09T14:56:48.813Z,1.80
2019-02-09T14:59:16.619Z,3.80
2019-02-09T15:01:44.355Z,4.12
2019-02-09T15:04:11.797Z,5.70
2019-02-09T15:06:39.227Z,2.25
2019-02-09T15:09:07.910Z,2.67
2019-02-09T15:11:35.432Z,4.45
2019-02-09T15:14:04.215Z,1.35
2019-02-09T15:16:44.285Z,1.90
2019-02-09T15:19:11.897Z,2.30
2019-02-09T15:21:39.343Z,2.25
2019-02-09T15:24:06.792Z,1.77
2019-02-09T15:26:34.231Z,2.95
2019-02-09T15:29:02.026Z,2.25
2019-02-09T15:31:29.466Z,3.95
2019-02-09T15:33:56.946Z,3.33
2019-02-09T15:36:24.352Z,4.12
2019-02-09T15:38:51.767Z,4.03
2019-02-09T15:41:19.325Z,3.02
2019-02-09T15:43:46.782Z,4.28
2019-02-09T15:46:14.275Z,2.80
2019-02-09T15:48:41.755Z,4.40
2019-02-09T15:51:09.216Z,4.30
2019-02-09T15:53:36.744Z,1.85
2019-02-09T15:56:04.367Z,3.27
2019-02-09T15:58:31.883Z,2.20
2019-02-09T16:00:59.339Z,3.83
2019-02-09T16:03:27.126Z,2.95
2019-02-09T16:05:54.598Z,2.60
2019-02-09T16:08:22.104Z,4.37
2019-02-09T16:10:49.656Z,4.35
2019-02-09T16:13:17.144Z,6.08
2019-02-09T16:15:45.208Z,3.58
2019-02-09T16:18:12.576Z,6.47
2019-02-09T16:20:40.075Z,4.17
2019-02-09T16:23:07.539Z,3.33
2019-02-09T16:25:35.382Z,3.58
2019-02-09T16:28:03.138Z,5.47
2019-02-09T16:30:30.534Z,2.42
2019-02-09T16:32:58.257Z,3.98
2019-02-09T16:35:25.729Z,4.65
2019-02-09T16:37:53.294Z,3.70
2019-02-09T16:40:22.577Z,5.30
2019-02-09T16:42:50.042Z,7.42
2019-02-09T16:45:22.652Z,6.60
2019-02-09T16:47:50.231Z,3.75
2019-02-09T16:50:17.759Z,5.95
2019-02-09T16:52:45.231Z,5.40
2019-02-09T16:55:13.804Z,3.42
2019-02-09T16:57:41.289Z,2.92
2019-02-09T17:00:12.287Z,3.40
2019-02-09T17:02:39.811Z,4.47
2019-02-09T17:05:07.634Z,5.53
2019-02-09T17:07:35.079Z,5.83
2019-02-09T17:10:04.095Z,6.62
2019-02-09T17:12:31.833Z,4.90
2019-02-09T17:14:59.345Z,6.03
2019-02-09T17:17:26.818Z,6.40
2019-02-09T17:19:54.283Z,4.50
2019-02-09T17:22:21.746Z,6.78
2019-02-09T17:24:50.109Z,5.55
2019-02-09T17:27:17.804Z,5.67
2019-02-09T17:29:45.350Z,5.50
2019-02-09T17:32:12.735Z,4.58
2019-02-09T17:34:41.136Z,3.77
2019-02-09T17:37:09.198Z,3.87
2019-02-09T17:39:36.526Z,5.60
2019-02-09T17:42:04.075Z,4.72
2019-02-09T17:44:31.840Z,6.78
2019-02-09T17:46:59.357Z,3.50
2019-02-09T17:49:26.809Z,4.53
2019-02-09T17:51:54.262Z,5.95
2019-02-09T17:54:21.750Z,3.25
2019-02-09T17:56:49.237Z,5.08
2019-02-09T17:59:16.681Z,4.12
2019-02-09T18:01:44.142Z,8.50
2019-02-09T18:04:11.534Z,4.85
2019-02-09T18:06:39.022Z,4.47
2019-02-09T18:09:07.158Z,4.90
2019-02-09T18:11:34.948Z,5.25
2019-02-09T18:14:02.604Z,9.05
2019-02-09T18:16:30.076Z,6.55
2019-02-09T18:18:57.444Z,5.20
2019-02-09T18:21:24.969Z,6.42
2019-02-09T18:23:52.784Z,5.80
2019-02-09T18:26:20.302Z,4.17
2019-02-09T18:28:47.804Z,7.25
2019-02-09T18:31:15.624Z,7.10
2019-02-09T18:33:43.204Z,4.87
2019-02-09T18:36:10.771Z,9.43
2019-02-09T18:38:38.346Z,6.15
2019-02-09T18:41:05.976Z,6.45
2019-02-09T18:43:33.760Z,4.92
2019-02-09T18:46:01.289Z,7.67
2019-02-09T18:48:29.125Z,8.80
2019-02-09T18:50:56.655Z,5.50
2019-02-09T18:53:24.279Z,3.47
2019-02-09T18:55:51.754Z,5.17
2019-02-09T18:58:19.874Z,3.37
2019-02-09T19:00:48.051Z,5.10
2019-02-09T19:03:15.519Z,5.10
2019-02-09T19:05:43.065Z,3.35
2019-02-09T19:08:10.729Z,3.37
2019-02-09T19:10:38.317Z,5.72
2019-02-09T19:13:05.919Z,6.33
2019-02-09T19:15:33.625Z,6.20
2019-02-09T19:18:01.136Z,5.47
2019-02-09T19:20:34.284Z,10.82
2019-02-09T19:23:02.414Z,8.05
2019-02-09T19:25:30.325Z,7.15
2019-02-09T19:27:57.895Z,6.20
2019-02-09T19:30:26.094Z,2.70
2019-02-09T19:32:54.071Z,5.60
2019-02-09T19:35:21.719Z,3.12
2019-02-09T19:37:49.675Z,6.03
2019-02-09T19:40:17.460Z,3.55
2019-02-09T19:42:45.870Z,4.22
2019-02-09T19:45:25.582Z,3.20
2019-02-09T19:47:53.536Z,4.05
2019-02-09T19:50:21.340Z,5.45
2019-02-09T19:52:48.975Z,6.08
2019-02-09T19:55:21.897Z,3.52
2019-02-09T19:57:49.425Z,3.50
2019-02-09T20:00:22.537Z,5.53
2019-02-09T20:02:50.479Z,6.28
2019-02-09T20:05:20.078Z,6.15
2019-02-09T20:07:47.738Z,5.83
2019-02-09T20:10:18.145Z,3.15
2019-02-09T20:12:46.207Z,4.78
2019-02-09T20:15:14.175Z,5.25
2019-02-09T20:17:41.847Z,7.35
2019-02-09T20:20:10.509Z,7.80
2019-02-09T20:22:38.120Z,6.97
2019-02-09T20:25:09.060Z,6.17
2019-02-09T20:27:36.563Z,7.83
2019-02-09T20:30:07.567Z,15.10
2019-02-09T20:32:35.097Z,10.60
2019-02-09T20:35:02.620Z,5.60
2019-02-09T20:37:30.224Z,7.12
2019-02-09T20:39:57.691Z,4.97
2019-02-09T20:42:25.460Z,6.37
2019-02-09T20:44:53.025Z,7.00
2019-02-09T20:47:21.020Z,7.90
2019-02-09T20:49:48.624Z,12.30
2019-02-09T20:52:16.197Z,11.48
2019-02-09T20:54:43.700Z,8.95
2019-02-09T20:57:11.224Z,6.12
2019-02-09T20:59:39.097Z,5.85
2019-02-09T21:02:06.954Z,6.15
2019-02-09T21:04:34.503Z,6.53
2019-02-09T21:07:01.992Z,7.20
2019-02-09T21:09:29.484Z,6.22
2019-02-09T21:11:57.032Z,5.03
2019-02-09T21:14:24.586Z,4.20
2019-02-09T21:16:52.147Z,4.80
2019-02-09T21:19:19.722Z,4.90
2019-02-09T21:21:48.809Z,4.78
2019-02-09T21:24:16.630Z,5.12
2019-02-09T21:26:44.187Z,4.90
2019-02-09T21:29:11.691Z,5.10
2019-02-09T21:31:39.204Z,4.40
2019-02-09T21:34:06.737Z,5.25
2019-02-09T21:36:34.187Z,7.72
2019-02-09T21:39:01.650Z,4.62
2019-02-09T21:41:29.350Z,4.60
2019-02-09T21:43:56.828Z,5.10
2019-02-09T21:46:24.344Z,8.85
2019-02-09T21:48:51.841Z,6.75
2019-02-09T21:51:19.327Z,11.85
2019-02-09T21:53:46.823Z,8.80
2019-02-09T21:56:14.356Z,10.20
2019-02-09T21:58:41.850Z,8.30
2019-02-09T22:01:09.423Z,5.87
2019-02-09T22:03:36.998Z,5.42
2019-02-09T22:06:04.443Z,6.00
2019-02-09T22:08:31.916Z,7.97
2019-02-09T22:10:59.781Z,8.43
2019-02-09T22:13:27.276Z,5.62
2019-02-09T22:15:54.759Z,7.30
2019-02-09T22:18:22.293Z,6.42
2019-02-09T22:20:52.917Z,7.42
2019-02-09T22:23:18.933Z,8.65
2019-02-09T22:25:46.411Z,6.53
2019-02-09T22:28:13.858Z,7.28
2019-02-09T22:30:41.341Z,6.47
2019-02-09T22:33:08.814Z,5.42
2019-02-09T22:35:36.289Z,5.78
2019-02-09T22:38:04.310Z,4.22
2019-02-09T22:40:32.869Z,4.75
2019-02-09T22:43:00.637Z,4.70
2019-02-09T22:45:29.546Z,5.17
2019-02-09T22:47:57.440Z,5.22
2019-02-09T22:50:30.214Z,3.95
2019-02-09T22:52:57.901Z,4.80
2019-02-09T22:55:25.459Z,5.08
2019-02-09T22:57:52.791Z,3.98
2019-02-09T23:00:40.733Z,5.17
2019-02-09T23:03:09.557Z,5.87
2019-02-09T23:06:14.207Z,5.03
2019-02-09T23:08:41.668Z,4.25
2019-02-09T23:11:09.085Z,4.10
2019-02-09T23:13:36.544Z,4.37
2019-02-09T23:16:04.290Z,5.22
2019-02-09T23:18:32.059Z,4.30
2019-02-09T23:20:59.521Z,3.98
2019-02-09T23:23:26.937Z,4.47
2019-02-09T23:25:55.050Z,4.78
2019-02-09T23:28:22.574Z,4.35
2019-02-09T23:30:50.326Z,3.70
2019-02-09T23:33:17.784Z,5.47
2019-02-09T23:35:45.536Z,5.00
2019-02-09T23:38:12.856Z,6.17
2019-02-09T23:40:40.221Z,4.80
2019-02-09T23:43:07.571Z,5.35
2019-02-09T23:45:34.968Z,4.45
2019-02-09T23:48:02.736Z,5.92
2019-02-09T23:50:30.579Z,4.15
2019-02-09T23:52:57.889Z,7.53
2019-02-09T23:55:25.238Z,4.30
2019-02-09T23:57:52.560Z,5.60
